Keyport, WA (98345)

1:58 AM PDT on August 27, 2014 (GMT -0700)
Keyport, WA | Change Station
CLOSE
Current Station
Personal Weather Station
Location: Keyport, WA
Elevation: 46 ft
Nearby Weather Stations

Elev 46 ft 47.70 °N, 122.63 °W | Updated 13 minutes ago

Clear
Clear
60.7 °F
Feels Like 60.7 °F
N
0.0
Wind Variable Wind from North
Gusts 0.0 mph

Today
High -- | Low -- °F
--% Chance of Precip.
Yesterday
High -- | Low -- °F
Precip. -- in
6:22 AM 8:00 PM
Waxing Crescent, 3% visible
Pressure 30.00 in
Visibility 10.0 miles
Clouds Clear
Dew Point 56 °F
Humidity 85%
Rainfall 0.00 in
Snow Depth Not available.
UV 0 out of 12
Pollen 3.80 out of 12
Air Quality Not available.
Flu Activity Not available.
METAR KBFI 270853Z 00000KT 10SM CLR 22/13 A3000 RMK AO2 SLP157 T02170133 51010

More Conditions Fewer Conditions

Pressure 30.00 in
Visibility 10.0 miles
Clouds Clear
Dew Point 56 °F
Humidity 85%
Rainfall 0.00 in
Snow Depth Not available.
UV 0 out of 12
Pollen 3.80 out of 12
Air Quality Not available.
Flu Activity Not available.
METAR KBFI 270853Z 00000KT 10SM CLR 22/13 A3000 RMK AO2 SLP157 T02170133 51010

More Conditions Fewer Conditions

10-Day Weather Forecast

Almanac

Astronomy

Aug. 27, 2014 Rise Set
Actual Time 6:22 AM PDT 8:00 PM PDT
Civil Twilight 5:49 AM PDT 8:32 PM PDT
Nautical Twilight 5:10 AM PDT 9:12 PM PDT
Astronomical Twilight 4:26 AM PDT 9:55 PM PDT
Moon 8:35 AM PDT 8:41 PM PDT
Length of Visible Light 14h 43m
Length of Day
13h 38m
Tomorrow will be 3m 16s shorter.
Waxing Crescent, 3% of the Moon is Illuminated
Today
Waxing Crescent
Sep 2
First Quarter
Sep 8
Full
Sep 15
Last Quarter
Sep 24
New

Today's Extremes

State Highs State Lows

Community

WunderPhotos

Upload Photos

1,747,657 photos uploaded!

Nearby

Snow Depth

Station Depth Elevation
Mount Crag 0 in 4050 ft
Dungeness 0 in 4100 ft
Alpine Meadows 0 in 3500 ft
Burnt Mountain 0 in 4200 ft
Meadows Pass 0 in 3500 ft

Earthquake Activity

City Distance Mag. Time & Date
No recent earthquake activity has been reported nearby.
Minimum magnitude displayed is 2.5.

Coastal Water Temperatures

Place Temperature
Port Townsend, WA 53.1 °F
Seattle, WA 57.0 °F
Friday Harbor, WA 53.1 °F
Tacoma, WA 55.9 °F

Nearby Weather Stations